Terminal Aerodrome Forecast
Issued by NWS Brownsville, TX

Home | Current Version | Previous Version | Text Only | Print | Product List | Glossary On
Versions: 1 2 3 4 5 6 7 8 9 10 11 12 13 14 15 16 17 18 19 20 21
000
FTUS44 KBRO 202300
TAFBRO
TAF
KBRO 202334Z 2100/2124 13015KT P6SM OVC030
     FM210230 14009KT P6SM BKN025
     FM210900 14006KT P6SM OVC015
      TEMPO 2111/2113 BKN007
     FM211500 14014KT P6SM OVC025
     FM211800 15015G20KT P6SM BKN035=

USA.gov is the U.S. government's official web portal to all federal, state and local government web resources and services.